sensor_id;sensor_type;location;lat;lon;timestamp;pressure;altitude;pressure_sealevel;temperature;humidity
46598;BME280;32318;48.858;8.252;2022-09-25T00:03:41;99907.75;;;14.33;81.79
46598;BME280;32318;48.858;8.252;2022-09-25T00:11:42;99901.97;;;14.30;81.74
46598;BME280;32318;48.858;8.252;2022-09-25T00:19:42;99909.38;;;14.27;81.71
46598;BME280;32318;48.858;8.252;2022-09-25T00:27:51;99896.97;;;14.26;81.90
46598;BME280;32318;48.858;8.252;2022-09-25T00:35:52;99889.72;;;14.27;82.00
46598;BME280;32318;48.858;8.252;2022-09-25T00:43:55;99881.84;;;14.19;82.06
46598;BME280;32318;48.858;8.252;2022-09-25T00:52:00;99880.81;;;14.20;82.19
46598;BME280;32318;48.858;8.252;2022-09-25T01:00:08;99873.59;;;14.20;82.26
46598;BME280;32318;48.858;8.252;2022-09-25T01:08:13;99872.59;;;14.21;82.02
46598;BME280;32318;48.858;8.252;2022-09-25T01:16:42;99879.16;;;14.19;82.33
46598;BME280;32318;48.858;8.252;2022-09-25T01:25:14;99873.34;;;14.15;81.89
46598;BME280;32318;48.858;8.252;2022-09-25T01:33:26;99870.81;;;14.07;82.33
46598;BME280;32318;48.858;8.252;2022-09-25T01:49:49;99869.34;;;14.04;82.46
46598;BME280;32318;48.858;8.252;2022-09-25T01:58:00;99861.50;;;14.03;82.68
46598;BME280;32318;48.858;8.252;2022-09-25T02:06:05;99854.91;;;14.05;82.63
46598;BME280;32318;48.858;8.252;2022-09-25T02:14:12;99853.91;;;14.06;82.54
46598;BME280;32318;48.858;8.252;2022-09-25T02:22:20;99854.53;;;14.08;82.34
46598;BME280;32318;48.858;8.252;2022-09-25T02:30:22;99861.50;;;14.03;82.26
46598;BME280;32318;48.858;8.252;2022-09-25T02:38:22;99853.63;;;14.01;82.53
46598;BME280;32318;48.858;8.252;2022-09-25T02:54:41;99859.59;;;13.96;82.67
46598;BME280;32318;48.858;8.252;2022-09-25T03:02:44;99849.28;;;13.93;82.51
46598;BME280;32318;48.858;8.252;2022-09-25T03:10:46;99847.41;;;13.94;82.54
46598;BME280;32318;48.858;8.252;2022-09-25T03:18:46;99843.69;;;13.95;82.23
46598;BME280;32318;48.858;8.252;2022-09-25T03:26:47;99844.53;;;13.95;82.49
46598;BME280;32318;48.858;8.252;2022-09-25T03:34:47;99843.25;;;13.91;82.37
46598;BME280;32318;48.858;8.252;2022-09-25T03:42:47;99851.94;;;13.93;82.33
46598;BME280;32318;48.858;8.252;2022-09-25T03:50:47;99844.06;;;13.92;82.54
46598;BME280;32318;48.858;8.252;2022-09-25T03:58:50;99846.97;;;13.90;82.64
46598;BME280;32318;48.858;8.252;2022-09-25T04:06:53;99859.34;;;13.91;82.55
46598;BME280;32318;48.858;8.252;2022-09-25T04:14:53;99850.94;;;13.94;82.36
46598;BME280;32318;48.858;8.252;2022-09-25T04:22:54;99847.59;;;13.92;82.14
46598;BME280;32318;48.858;8.252;2022-09-25T04:30:54;99847.16;;;13.89;82.25
46598;BME280;32318;48.858;8.252;2022-09-25T04:38:54;99837.66;;;13.86;82.46
46598;BME280;32318;48.858;8.252;2022-09-25T04:46:54;99845.72;;;13.86;82.33
46598;BME280;32318;48.858;8.252;2022-09-25T04:54:55;99854.13;;;13.83;82.27
46598;BME280;32318;48.858;8.252;2022-09-25T05:02:55;99853.50;;;13.81;82.00
46598;BME280;32318;48.858;8.252;2022-09-25T05:10:56;99858.63;;;13.76;81.95
46598;BME280;32318;48.858;8.252;2022-09-25T05:18:56;99862.53;;;13.73;82.40
46598;BME280;32318;48.858;8.252;2022-09-25T05:26:56;99859.22;;;13.71;82.52
46598;BME280;32318;48.858;8.252;2022-09-25T05:34:57;99856.31;;;13.73;82.64
46598;BME280;32318;48.858;8.252;2022-09-25T05:42:57;99862.53;;;13.73;82.60
46598;BME280;32318;48.858;8.252;2022-09-25T05:50:58;99866.69;;;13.76;82.72
46598;BME280;32318;48.858;8.252;2022-09-25T05:58:59;99868.53;;;13.75;82.72
46598;BME280;32318;48.858;8.252;2022-09-25T06:06:59;99878.44;;;13.75;83.01
46598;BME280;32318;48.858;8.252;2022-09-25T06:15:00;99878.63;;;13.73;83.12
46598;BME280;32318;48.858;8.252;2022-09-25T06:23:01;99885.47;;;13.76;83.11
46598;BME280;32318;48.858;8.252;2022-09-25T06:31:03;99881.56;;;13.78;83.22
46598;BME280;32318;48.858;8.252;2022-09-25T06:39:03;99887.75;;;13.79;83.33
46598;BME280;32318;48.858;8.252;2022-09-25T06:47:04;99898.47;;;13.79;83.02
46598;BME280;32318;48.858;8.252;2022-09-25T06:55:04;99889.81;;;13.77;82.88
46598;BME280;32318;48.858;8.252;2022-09-25T07:03:05;99897.59;;;13.72;82.45
46598;BME280;32318;48.858;8.252;2022-09-25T07:11:26;99894.28;;;13.70;82.18
46598;BME280;32318;48.858;8.252;2022-09-25T07:19:30;99890.41;;;13.79;81.75
46598;BME280;32318;48.858;8.252;2022-09-25T07:27:30;99894.38;;;13.83;81.48
46598;BME280;32318;48.858;8.252;2022-09-25T07:35:33;99883.38;;;14.00;81.24
46598;BME280;32318;48.858;8.252;2022-09-25T07:43:33;99893.94;;;14.08;80.91
46598;BME280;32318;48.858;8.252;2022-09-25T07:51:34;99889.44;;;14.08;80.30
46598;BME280;32318;48.858;8.252;2022-09-25T07:59:34;99887.91;;;13.99;80.54
46598;BME280;32318;48.858;8.252;2022-09-25T08:07:34;99895.75;;;14.01;80.84
46598;BME280;32318;48.858;8.252;2022-09-25T08:15:35;99886.69;;;14.02;80.60
46598;BME280;32318;48.858;8.252;2022-09-25T08:23:35;99892.69;;;14.04;80.75
46598;BME280;32318;48.858;8.252;2022-09-25T08:31:35;99895.41;;;14.10;80.08
46598;BME280;32318;48.858;8.252;2022-09-25T08:39:36;99896.91;;;14.20;80.13
46598;BME280;32318;48.858;8.252;2022-09-25T08:47:36;99897.19;;;14.32;79.86
46598;BME280;32318;48.858;8.252;2022-09-25T08:55:56;99904.72;;;14.43;79.33
46598;BME280;32318;48.858;8.252;2022-09-25T09:04:54;99909.22;;;14.36;78.97
46598;BME280;32318;48.858;8.252;2022-09-25T09:13:05;99902.41;;;14.40;78.99
46598;BME280;32318;48.858;8.252;2022-09-25T09:21:14;99907.13;;;14.31;79.67
46598;BME280;32318;48.858;8.252;2022-09-25T09:29:40;99910.72;;;14.45;80.38
46598;BME280;32318;48.858;8.252;2022-09-25T09:37:54;99900.38;;;14.77;79.47
46598;BME280;32318;48.858;8.252;2022-09-25T09:54:40;99884.78;;;15.14;78.03
46598;BME280;32318;48.858;8.252;2022-09-25T10:02:56;99887.31;;;15.43;77.78
46598;BME280;32318;48.858;8.252;2022-09-25T10:10:57;99889.81;;;15.58;77.06
46598;BME280;32318;48.858;8.252;2022-09-25T10:27:20;99883.81;;;15.42;75.92
46598;BME280;32318;48.858;8.252;2022-09-25T10:35:25;99883.16;;;15.27;75.87
46598;BME280;32318;48.858;8.252;2022-09-25T10:43:26;99877.56;;;15.21;76.61
46598;BME280;32318;48.858;8.252;2022-09-25T10:59:37;99880.66;;;15.12;76.83
46598;BME280;32318;48.858;8.252;2022-09-25T11:07:37;99884.38;;;15.11;77.08
46598;BME280;32318;48.858;8.252;2022-09-25T11:15:38;99891.38;;;15.05;77.52
46598;BME280;32318;48.858;8.252;2022-09-25T11:40:54;99884.75;;;15.08;77.81
46598;BME280;32318;48.858;8.252;2022-09-25T11:49:17;99870.53;;;15.20;78.16
46598;BME280;32318;48.858;8.252;2022-09-25T12:30:15;99862.56;;;16.60;73.25
46598;BME280;32318;48.858;8.252;2022-09-25T12:38:29;99850.88;;;16.80;71.95
46598;BME280;32318;48.858;8.252;2022-09-25T12:46:42;99844.41;;;16.87;70.47
46598;BME280;32318;48.858;8.252;2022-09-25T12:54:54;99844.06;;;16.77;70.10
46598;BME280;32318;48.858;8.252;2022-09-25T13:03:03;99840.44;;;16.44;69.96
46598;BME280;32318;48.858;8.252;2022-09-25T13:11:10;99840.53;;;16.04;73.85
46598;BME280;32318;48.858;8.252;2022-09-25T13:19:26;99854.59;;;15.19;75.72
46598;BME280;32318;48.858;8.252;2022-09-25T13:27:37;99847.31;;;14.51;78.81
46598;BME280;32318;48.858;8.252;2022-09-25T13:35:41;99849.13;;;14.37;79.56
46598;BME280;32318;48.858;8.252;2022-09-25T13:43:42;99851.31;;;14.26;80.25
46598;BME280;32318;48.858;8.252;2022-09-25T13:51:53;99850.53;;;14.33;80.38
46598;BME280;32318;48.858;8.252;2022-09-25T14:09:27;99864.19;;;14.73;83.48
46598;BME280;32318;48.858;8.252;2022-09-25T14:17:51;99859.47;;;14.88;81.29
46598;BME280;32318;48.858;8.252;2022-09-25T14:26:17;99841.06;;;14.85;82.22
46598;BME280;32318;48.858;8.252;2022-09-25T14:34:32;99847.53;;;14.98;82.07
46598;BME280;32318;48.858;8.252;2022-09-25T14:50:58;99844.22;;;15.09;81.82
46598;BME280;32318;48.858;8.252;2022-09-25T14:59:11;99852.91;;;15.11;82.35
46598;BME280;32318;48.858;8.252;2022-09-25T15:07:17;99846.31;;;15.07;82.29
46598;BME280;32318;48.858;8.252;2022-09-25T15:15:20;99842.94;;;14.92;82.53
46598;BME280;32318;48.858;8.252;2022-09-25T15:23:21;99849.56;;;14.82;81.66
46598;BME280;32318;48.858;8.252;2022-09-25T15:31:22;99845.38;;;14.80;81.94
46598;BME280;32318;48.858;8.252;2022-09-25T15:39:24;99839.78;;;14.74;81.61
46598;BME280;32318;48.858;8.252;2022-09-25T15:47:47;99837.47;;;14.65;82.80
46598;BME280;32318;48.858;8.252;2022-09-25T15:56:00;99843.88;;;14.64;82.62
46598;BME280;32318;48.858;8.252;2022-09-25T16:04:05;99834.16;;;14.63;82.79
46598;BME280;32318;48.858;8.252;2022-09-25T16:28:31;99883.38;;;14.35;79.44
46598;BME280;32318;48.858;8.252;2022-09-25T16:36:38;99881.25;;;13.95;79.64
46598;BME280;32318;48.858;8.252;2022-09-25T16:44:42;99889.44;;;13.58;80.88
46598;BME280;32318;48.858;8.252;2022-09-25T16:52:47;99884.50;;;13.40;81.86
46598;BME280;32318;48.858;8.252;2022-09-25T17:00:49;99898.78;;;13.26;82.05
46598;BME280;32318;48.858;8.252;2022-09-25T17:08:49;99900.44;;;13.27;82.45
46598;BME280;32318;48.858;8.252;2022-09-25T17:16:52;99904.13;;;13.26;82.58
46598;BME280;32318;48.858;8.252;2022-09-25T17:25:00;99902.47;;;13.25;82.26
46598;BME280;32318;48.858;8.252;2022-09-25T17:33:02;99903.69;;;13.22;82.65
46598;BME280;32318;48.858;8.252;2022-09-25T17:41:19;99914.22;;;13.24;83.68
46598;BME280;32318;48.858;8.252;2022-09-25T17:49:21;99918.66;;;13.31;83.38
46598;BME280;32318;48.858;8.252;2022-09-25T17:57:22;99924.94;;;13.39;83.99
46598;BME280;32318;48.858;8.252;2022-09-25T18:05:22;99934.97;;;13.52;84.14
46598;BME280;32318;48.858;8.252;2022-09-25T18:13:24;99947.81;;;13.56;83.92
46598;BME280;32318;48.858;8.252;2022-09-25T18:21:25;99956.50;;;13.58;83.91
46598;BME280;32318;48.858;8.252;2022-09-25T18:29:43;99958.97;;;13.60;84.12
46598;BME280;32318;48.858;8.252;2022-09-25T18:37:46;99962.69;;;13.59;83.83
46598;BME280;32318;48.858;8.252;2022-09-25T18:45:49;99962.69;;;13.59;83.98
46598;BME280;32318;48.858;8.252;2022-09-25T18:53:50;99976.28;;;13.57;84.10
46598;BME280;32318;48.858;8.252;2022-09-25T19:01:51;99988.22;;;13.55;84.62
46598;BME280;32318;48.858;8.252;2022-09-25T19:09:53;99968.63;;;13.54;84.33
46598;BME280;32318;48.858;8.252;2022-09-25T19:17:54;99977.09;;;13.58;84.47
46598;BME280;32318;48.858;8.252;2022-09-25T19:25:59;99969.25;;;13.56;84.60
46598;BME280;32318;48.858;8.252;2022-09-25T19:34:01;99967.59;;;13.55;84.54
46598;BME280;32318;48.858;8.252;2022-09-25T19:42:02;99969.19;;;13.49;84.44
46598;BME280;32318;48.858;8.252;2022-09-25T19:50:02;99983.81;;;13.47;84.86
46598;BME280;32318;48.858;8.252;2022-09-25T19:58:09;99980.31;;;13.46;85.02
46598;BME280;32318;48.858;8.252;2022-09-25T20:06:09;99983.81;;;13.47;84.86
46598;BME280;32318;48.858;8.252;2022-09-25T20:14:10;99981.91;;;13.41;85.19
46598;BME280;32318;48.858;8.252;2022-09-25T20:22:10;99973.84;;;13.41;84.94
46598;BME280;32318;48.858;8.252;2022-09-25T20:30:11;99967.84;;;13.39;84.87
46598;BME280;32318;48.858;8.252;2022-09-25T20:38:11;99965.03;;;13.32;85.15
46598;BME280;32318;48.858;8.252;2022-09-25T20:46:12;99963.38;;;13.31;85.08
46598;BME280;32318;48.858;8.252;2022-09-25T20:54:13;99961.19;;;13.34;84.78
46598;BME280;32318;48.858;8.252;2022-09-25T21:02:13;99973.28;;;13.30;84.38
46598;BME280;32318;48.858;8.252;2022-09-25T21:10:13;99963.56;;;13.29;84.75
46598;BME280;32318;48.858;8.252;2022-09-25T21:18:14;99957.41;;;13.29;84.56
46598;BME280;32318;48.858;8.252;2022-09-25T21:26:15;99961.09;;;13.28;84.60
46598;BME280;32318;48.858;8.252;2022-09-25T21:34:16;99957.31;;;13.22;84.58
46598;BME280;32318;48.858;8.252;2022-09-25T21:42:16;99954.28;;;13.10;85.00
46598;BME280;32318;48.858;8.252;2022-09-25T21:50:16;99950.59;;;13.11;85.01
46598;BME280;32318;48.858;8.252;2022-09-25T21:58:23;99941.44;;;13.06;84.70
46598;BME280;32318;48.858;8.252;2022-09-25T22:06:33;99943.88;;;13.00;84.82
46598;BME280;32318;48.858;8.252;2022-09-25T22:14:33;99942.94;;;12.93;85.07
46598;BME280;32318;48.858;8.252;2022-09-25T22:22:34;99942.94;;;12.93;85.03
46598;BME280;32318;48.858;8.252;2022-09-25T22:30:34;99932.59;;;12.90;84.71
46598;BME280;32318;48.858;8.252;2022-09-25T22:38:35;99927.16;;;12.83;84.57
46598;BME280;32318;48.858;8.252;2022-09-25T22:46:36;99923.38;;;12.78;84.51
46598;BME280;32318;48.858;8.252;2022-09-25T22:54:36;99925.25;;;12.62;84.81
46598;BME280;32318;48.858;8.252;2022-09-25T23:02:36;99923.41;;;12.48;84.62
46598;BME280;32318;48.858;8.252;2022-09-25T23:10:37;99912.50;;;12.34;84.39
46598;BME280;32318;48.858;8.252;2022-09-25T23:18:37;99913.59;;;12.25;84.32
46598;BME280;32318;48.858;8.252;2022-09-25T23:26:38;99899.53;;;12.23;84.67
46598;BME280;32318;48.858;8.252;2022-09-25T23:34:38;99902.31;;;12.15;84.32
46598;BME280;32318;48.858;8.252;2022-09-25T23:42:38;99903.41;;;12.05;84.46
46598;BME280;32318;48.858;8.252;2022-09-25T23:50:39;99888.94;;;12.00;84.06
46598;BME280;32318;48.858;8.252;2022-09-25T23:58:39;99902.50;;;11.90;83.99
